createdAt,value
2023-03-18T00:01:11.045Z,3.50
2023-03-18T00:03:39.630Z,3.00
2023-03-18T00:06:17.031Z,2.80
2023-03-18T00:08:47.289Z,2.80
2023-03-18T00:11:18.638Z,2.40
2023-03-18T00:13:46.726Z,2.80
2023-03-18T00:16:15.892Z,3.10
2023-03-18T00:18:43.928Z,3.00
2023-03-18T00:21:12.362Z,3.30
2023-03-18T00:23:40.662Z,3.10
2023-03-18T00:26:09.019Z,3.20
2023-03-18T00:31:09.164Z,2.30
2023-03-18T00:33:38.424Z,2.90
2023-03-18T00:36:10.281Z,3.20
2023-03-18T00:38:38.178Z,1.90
2023-03-18T00:41:11.787Z,2.70
2023-03-18T00:43:52.626Z,2.80
2023-03-18T00:46:29.832Z,2.70
2023-03-18T00:49:00.727Z,3.00
2023-03-18T00:51:32.343Z,2.80
2023-03-18T00:54:02.086Z,2.30
2023-03-18T00:59:00.166Z,2.50
2023-03-18T01:01:28.907Z,3.30
2023-03-18T01:03:59.715Z,2.30
2023-03-18T01:06:31.305Z,1.90
2023-03-18T01:08:59.637Z,2.60
2023-03-18T01:11:28.366Z,2.20
2023-03-18T01:13:57.128Z,1.70
2023-03-18T01:16:25.146Z,3.10
2023-03-18T01:18:53.832Z,1.50
2023-03-18T01:21:22.522Z,2.50
2023-03-18T01:23:54.447Z,2.80
2023-03-18T01:26:23.204Z,2.40
2023-03-18T01:28:51.813Z,2.00
2023-03-18T01:31:19.619Z,2.20
2023-03-18T01:33:48.721Z,1.90
2023-03-18T01:36:17.567Z,1.50
2023-03-18T01:38:45.916Z,2.20
2023-03-18T01:41:17.193Z,2.20
2023-03-18T01:43:45.023Z,2.60
2023-03-18T01:46:32.050Z,2.20
2023-03-18T01:49:02.656Z,2.10
2023-03-18T01:51:31.225Z,2.50
2023-03-18T01:54:03.392Z,2.40
2023-03-18T01:56:33.462Z,1.70
2023-03-18T01:59:01.288Z,1.90
2023-03-18T02:01:53.205Z,2.20
2023-03-18T02:04:25.865Z,1.80
2023-03-18T02:06:53.632Z,2.20
2023-03-18T02:09:21.648Z,2.20
2023-03-18T02:11:51.717Z,1.80
2023-03-18T02:14:23.753Z,2.40
2023-03-18T02:17:01.785Z,1.70
2023-03-18T02:19:49.170Z,2.20
2023-03-18T02:22:32.045Z,2.00
2023-03-18T02:25:13.534Z,1.90
2023-03-18T02:27:46.011Z,2.40
2023-03-18T02:30:33.638Z,1.90
2023-03-18T02:33:02.637Z,2.50
2023-03-18T02:35:32.255Z,2.00
2023-03-18T02:38:01.696Z,1.90
2023-03-18T02:40:38.668Z,1.80
2023-03-18T02:43:27.580Z,2.20
2023-03-18T02:46:12.130Z,2.30
2023-03-18T02:48:44.882Z,2.30
2023-03-18T02:51:16.222Z,2.10
2023-03-18T02:53:45.049Z,1.70
2023-03-18T02:56:13.483Z,2.10
2023-03-18T02:58:42.401Z,3.00
2023-03-18T03:01:11.494Z,2.60
2023-03-18T03:03:40.141Z,1.70
2023-03-18T03:06:11.109Z,2.00
2023-03-18T03:08:39.529Z,2.40
2023-03-18T03:11:08.528Z,1.80
2023-03-18T03:13:40.046Z,1.50
2023-03-18T03:16:10.705Z,1.50
2023-03-18T03:21:06.727Z,1.40
2023-03-18T03:23:36.747Z,1.70
2023-03-18T03:26:05.290Z,1.40
2023-03-18T03:28:33.979Z,1.90
2023-03-18T03:31:02.129Z,1.70
2023-03-18T03:33:30.096Z,1.50
2023-03-18T03:35:58.433Z,2.20
2023-03-18T03:38:26.740Z,1.80
2023-03-18T03:40:55.928Z,1.90
2023-03-18T03:43:23.836Z,2.20
2023-03-18T03:45:51.628Z,1.80
2023-03-18T03:48:19.352Z,1.70
2023-03-18T03:50:47.696Z,1.60
2023-03-18T03:53:15.838Z,2.10
2023-03-18T03:55:44.450Z,2.10
2023-03-18T03:58:12.438Z,1.90
2023-03-18T04:00:40.975Z,1.40
2023-03-18T04:03:09.017Z,1.60
2023-03-18T04:05:37.358Z,1.60
2023-03-18T04:08:06.674Z,1.30
2023-03-18T04:10:38.646Z,1.60
2023-03-18T04:13:08.874Z,1.80
2023-03-18T04:15:36.675Z,1.50
2023-03-18T04:18:09.030Z,2.00
2023-03-18T04:20:38.822Z,1.60
2023-03-18T04:23:14.254Z,2.10
2023-03-18T04:25:42.826Z,1.30
2023-03-18T04:28:10.718Z,1.70
2023-03-18T04:30:38.727Z,1.40
2023-03-18T04:33:10.457Z,1.60
2023-03-18T04:35:43.687Z,1.60
2023-03-18T04:38:12.286Z,1.40
2023-03-18T04:40:40.253Z,2.00
2023-03-18T04:43:10.093Z,1.40
2023-03-18T04:45:38.366Z,1.30
2023-03-18T04:48:06.533Z,1.80
2023-03-18T04:50:37.964Z,1.20
2023-03-18T04:53:06.683Z,1.70
2023-03-18T04:55:34.740Z,1.50
2023-03-18T04:58:03.537Z,1.70
2023-03-18T05:00:32.755Z,1.60
2023-03-18T05:03:12.963Z,1.50
2023-03-18T05:05:41.602Z,1.70
2023-03-18T05:08:10.430Z,1.90
2023-03-18T05:10:40.206Z,1.60
2023-03-18T05:13:09.573Z,1.80
2023-03-18T05:15:37.711Z,1.70
2023-03-18T05:18:05.678Z,1.90
2023-03-18T05:20:34.024Z,1.70
2023-03-18T05:23:03.187Z,1.90
2023-03-18T05:25:42.989Z,1.60
2023-03-18T05:28:11.492Z,1.70
2023-03-18T05:30:52.376Z,1.40
2023-03-18T05:33:23.023Z,2.00
2023-03-18T05:35:56.872Z,1.50
2023-03-18T05:38:29.186Z,1.90
2023-03-18T05:40:57.564Z,1.60
2023-03-18T05:43:32.802Z,1.50
2023-03-18T05:46:00.840Z,1.50
2023-03-18T05:48:43.584Z,1.30
2023-03-18T05:51:12.677Z,2.20
2023-03-18T05:53:41.234Z,2.40
2023-03-18T05:56:19.319Z,2.00
2023-03-18T05:58:52.026Z,2.10
2023-03-18T06:01:31.609Z,1.40
2023-03-18T06:04:00.634Z,1.70
2023-03-18T06:06:29.069Z,1.90
2023-03-18T06:08:57.007Z,2.20
2023-03-18T06:11:24.992Z,1.70
2023-03-18T06:13:53.246Z,1.50
2023-03-18T06:16:22.388Z,1.40
2023-03-18T06:18:52.447Z,1.90
2023-03-18T06:21:20.204Z,1.80
2023-03-18T06:23:48.448Z,1.70
2023-03-18T06:26:17.122Z,1.30
2023-03-18T06:28:48.846Z,1.60
2023-03-18T06:31:17.897Z,2.10
2023-03-18T06:33:46.476Z,1.40
2023-03-18T06:36:16.769Z,1.10
2023-03-18T06:38:49.817Z,1.50
2023-03-18T06:41:18.357Z,1.20
2023-03-18T06:44:05.220Z,1.90
2023-03-18T06:46:33.093Z,1.40
2023-03-18T06:49:01.987Z,1.90
2023-03-18T06:51:33.555Z,2.20
2023-03-18T06:54:01.506Z,2.20
2023-03-18T07:02:43.311Z,1.50
2023-03-18T07:05:13.216Z,1.80
2023-03-18T07:07:42.116Z,1.90
2023-03-18T07:10:18.871Z,1.50
2023-03-18T07:12:48.016Z,1.50
2023-03-18T07:15:21.703Z,1.90
2023-03-18T07:17:52.256Z,2.00
2023-03-18T07:20:22.268Z,1.80
2023-03-18T07:22:51.403Z,1.50
2023-03-18T07:25:21.699Z,1.80
2023-03-18T07:27:51.215Z,1.60
2023-03-18T07:30:20.220Z,1.50
2023-03-18T07:32:49.862Z,1.80
2023-03-18T07:35:17.790Z,2.40
2023-03-18T07:37:46.195Z,2.10
2023-03-18T07:40:14.750Z,1.90
2023-03-18T07:42:42.838Z,1.30
2023-03-18T07:45:10.852Z,1.80
2023-03-18T07:47:38.930Z,1.60
2023-03-18T07:50:07.571Z,1.10
2023-03-18T07:52:35.783Z,1.80
2023-03-18T07:55:04.499Z,1.50
2023-03-18T08:01:03.214Z,1.60
2023-03-18T08:03:31.002Z,1.30
2023-03-18T08:05:58.724Z,2.40
2023-03-18T08:08:26.577Z,1.90
2023-03-18T08:11:00.435Z,1.70
2023-03-18T08:13:28.865Z,1.70
2023-03-18T08:15:56.661Z,2.50
2023-03-18T08:18:24.724Z,1.60
2023-03-18T08:20:53.174Z,1.80
2023-03-18T08:23:21.227Z,2.40
2023-03-18T08:25:50.834Z,1.50
2023-03-18T08:28:19.244Z,1.70
2023-03-18T08:30:47.444Z,1.90
2023-03-18T08:33:15.912Z,2.10
2023-03-18T08:35:43.725Z,1.80
2023-03-18T08:38:11.643Z,2.30
2023-03-18T08:40:41.248Z,1.90
2023-03-18T08:43:10.050Z,2.40
2023-03-18T08:45:37.902Z,2.10
2023-03-18T08:48:06.289Z,2.20
2023-03-18T08:50:35.693Z,2.20
2023-03-18T08:53:03.911Z,1.80
2023-03-18T08:55:35.138Z,2.20
2023-03-18T08:58:05.776Z,1.80
2023-03-18T09:00:36.531Z,1.70
2023-03-18T09:03:05.111Z,2.10
2023-03-18T09:05:34.227Z,2.60
2023-03-18T09:08:02.075Z,2.60
2023-03-18T09:10:30.479Z,2.00
2023-03-18T09:12:58.230Z,2.10
2023-03-18T09:15:27.317Z,2.50
2023-03-18T09:18:10.508Z,2.10
2023-03-18T09:20:41.106Z,2.30
2023-03-18T09:25:38.525Z,1.80
2023-03-18T09:28:06.418Z,2.20
2023-03-18T09:30:34.300Z,2.50
2023-03-18T09:33:02.184Z,2.40
2023-03-18T09:35:30.525Z,1.70
2023-03-18T09:37:58.856Z,2.20
2023-03-18T09:40:44.065Z,1.90
2023-03-18T09:43:14.500Z,2.20
2023-03-18T09:46:03.833Z,2.70
2023-03-18T09:48:58.006Z,2.10
2023-03-18T09:51:57.592Z,2.50
2023-03-18T09:54:44.667Z,2.60
2023-03-18T09:57:23.011Z,2.50
2023-03-18T09:59:55.440Z,2.40
2023-03-18T10:02:47.624Z,2.40
2023-03-18T10:05:25.371Z,2.50
2023-03-18T10:07:57.239Z,2.80
2023-03-18T10:10:34.688Z,2.30
2023-03-18T10:13:18.406Z,2.50
2023-03-18T10:15:51.571Z,2.50
2023-03-18T10:18:30.718Z,2.50
2023-03-18T10:21:12.028Z,2.00
2023-03-18T10:24:04.236Z,2.40
2023-03-18T10:26:40.720Z,2.60
2023-03-18T10:29:23.397Z,2.70
2023-03-18T10:32:03.753Z,2.10
2023-03-18T10:34:40.576Z,2.30
2023-03-18T10:37:37.158Z,2.30
2023-03-18T10:40:17.790Z,2.20
2023-03-18T10:42:46.258Z,2.20
2023-03-18T10:45:27.542Z,3.00
2023-03-18T10:48:18.664Z,2.90
2023-03-18T10:50:54.688Z,4.30
2023-03-18T10:53:42.120Z,2.60
2023-03-18T10:56:13.054Z,2.90
2023-03-18T11:02:22.777Z,3.40
2023-03-18T11:04:58.373Z,2.90
2023-03-18T11:07:28.271Z,2.20
2023-03-18T11:10:30.798Z,2.50
2023-03-18T11:13:02.787Z,2.50
2023-03-18T11:15:37.188Z,2.40
2023-03-18T11:18:05.886Z,2.50
2023-03-18T11:20:47.500Z,2.80
2023-03-18T11:25:52.790Z,2.80
2023-03-18T11:28:23.383Z,1.90
2023-03-18T11:30:56.425Z,2.70
2023-03-18T11:33:27.570Z,2.40
2023-03-18T11:35:59.089Z,2.60
2023-03-18T11:38:35.838Z,2.00
2023-03-18T11:41:16.895Z,3.20
2023-03-18T11:44:01.420Z,2.40
2023-03-18T11:46:40.675Z,2.70
2023-03-18T11:49:34.767Z,2.40
2023-03-18T11:52:24.140Z,2.40
2023-03-18T11:55:01.545Z,2.70
2023-03-18T11:57:42.125Z,2.30
2023-03-18T12:00:28.698Z,2.80
2023-03-18T12:03:15.432Z,2.90
2023-03-18T12:06:05.460Z,2.50
2023-03-18T12:08:45.175Z,2.70
2023-03-18T12:11:28.672Z,2.30
2023-03-18T12:14:09.718Z,2.40
2023-03-18T12:17:05.521Z,2.10
2023-03-18T12:19:45.415Z,2.00
2023-03-18T12:22:35.809Z,2.50
2023-03-18T12:25:13.758Z,3.80
2023-03-18T12:28:03.566Z,2.80
2023-03-18T12:30:43.334Z,3.10
2023-03-18T12:33:19.997Z,2.50
2023-03-18T12:35:53.597Z,3.50
2023-03-18T12:38:49.094Z,3.20
2023-03-18T12:41:30.281Z,2.80
2023-03-18T12:44:33.952Z,2.70
2023-03-18T12:47:06.988Z,2.60
2023-03-18T12:49:48.400Z,3.60
2023-03-18T12:52:31.338Z,1.60
2023-03-18T12:55:21.767Z,2.20
2023-03-18T12:58:04.932Z,3.20
2023-03-18T13:00:41.077Z,2.10
2023-03-18T13:03:21.865Z,2.80
2023-03-18T13:06:04.000Z,3.10
2023-03-18T13:09:10.619Z,2.50
2023-03-18T13:12:04.630Z,2.70
2023-03-18T13:17:23.514Z,2.60
2023-03-18T13:19:51.784Z,3.30
2023-03-18T13:22:32.154Z,2.70
2023-03-18T13:25:30.698Z,2.80
2023-03-18T13:28:11.437Z,4.10
2023-03-18T13:31:01.061Z,2.70
2023-03-18T13:33:31.646Z,2.30
2023-03-18T13:36:19.554Z,3.30
2023-03-18T13:39:24.955Z,4.00
2023-03-18T13:42:17.001Z,4.00
2023-03-18T13:45:06.924Z,3.60
2023-03-18T13:47:40.635Z,3.90
2023-03-18T13:50:20.520Z,3.60
2023-03-18T13:52:49.233Z,3.60
2023-03-18T13:55:42.156Z,3.80
2023-03-18T13:58:18.740Z,4.40
2023-03-18T14:01:15.712Z,3.80
2023-03-18T14:03:43.447Z,3.20
2023-03-18T14:06:11.195Z,2.90
2023-03-18T14:08:38.936Z,3.10
2023-03-18T14:11:17.061Z,3.20
2023-03-18T14:13:49.851Z,3.50
2023-03-18T14:16:43.734Z,3.70
2023-03-18T14:19:21.741Z,3.40
2023-03-18T14:22:04.720Z,3.80
2023-03-18T14:24:35.616Z,3.50
2023-03-18T14:27:04.498Z,2.80
2023-03-18T14:29:41.842Z,2.60
2023-03-18T14:32:32.950Z,2.70
2023-03-18T14:35:28.045Z,2.60
2023-03-18T14:38:15.630Z,2.20
2023-03-18T14:40:46.672Z,3.00
2023-03-18T14:43:23.931Z,2.40
2023-03-18T14:45:56.772Z,2.60
2023-03-18T14:48:29.408Z,2.40
2023-03-18T14:51:00.251Z,3.50
2023-03-18T14:53:37.725Z,3.40
2023-03-18T14:56:16.383Z,2.60
2023-03-18T14:58:46.145Z,2.40
2023-03-18T15:01:16.182Z,3.00
2023-03-18T15:03:47.482Z,2.70
2023-03-18T15:06:41.917Z,2.70
2023-03-18T15:09:17.420Z,3.60
2023-03-18T15:11:47.696Z,4.00
2023-03-18T15:14:23.252Z,3.40
2023-03-18T15:16:56.623Z,3.60
2023-03-18T15:19:27.373Z,3.30
2023-03-18T15:22:04.484Z,3.20
2023-03-18T15:24:33.020Z,4.60
2023-03-18T15:27:14.750Z,3.00
2023-03-18T15:32:20.531Z,4.60
2023-03-18T15:35:16.705Z,4.40
2023-03-18T15:37:46.512Z,3.80
2023-03-18T15:40:36.757Z,3.00
2023-03-18T15:43:04.511Z,4.20
2023-03-18T15:45:34.200Z,3.00
2023-03-18T15:48:21.733Z,3.80
2023-03-18T15:51:30.016Z,4.10
2023-03-18T15:54:04.549Z,3.90
2023-03-18T15:56:36.045Z,3.90
2023-03-18T15:59:06.981Z,3.70
2023-03-18T16:01:35.630Z,2.70
2023-03-18T16:04:07.623Z,3.30
2023-03-18T16:06:35.376Z,3.50
2023-03-18T16:09:17.337Z,3.20
2023-03-18T16:11:49.529Z,4.10
2023-03-18T16:14:23.408Z,4.80
2023-03-18T16:16:51.639Z,3.20
2023-03-18T16:19:27.935Z,4.10
2023-03-18T16:21:58.322Z,4.20
2023-03-18T16:24:26.062Z,3.10
2023-03-18T16:26:55.710Z,3.00
2023-03-18T16:29:36.988Z,3.70
2023-03-18T16:32:05.184Z,3.80
2023-03-18T16:34:33.629Z,3.60
2023-03-18T16:37:01.828Z,3.80
2023-03-18T16:39:35.191Z,3.40
2023-03-18T16:42:05.135Z,3.60
2023-03-18T16:44:38.106Z,3.50
2023-03-18T16:47:06.141Z,3.90
2023-03-18T16:49:40.392Z,4.10
2023-03-18T16:52:12.086Z,3.50
2023-03-18T16:54:40.079Z,4.10
2023-03-18T16:57:16.870Z,4.30
2023-03-18T16:59:50.114Z,4.50
2023-03-18T17:02:35.014Z,8.70
2023-03-18T17:05:03.946Z,8.00
2023-03-18T17:07:33.958Z,10.80
2023-03-18T17:10:01.684Z,17.00
2023-03-18T17:12:29.592Z,8.00
2023-03-18T17:14:58.913Z,6.60
2023-03-18T17:17:33.634Z,5.30
2023-03-18T17:20:02.409Z,5.00
2023-03-18T17:22:32.654Z,4.10
2023-03-18T17:25:02.632Z,4.40
2023-03-18T17:27:34.041Z,3.70
2023-03-18T17:30:02.043Z,4.60
2023-03-18T17:32:29.878Z,4.30
2023-03-18T17:34:57.743Z,3.70
2023-03-18T17:37:25.516Z,4.20
2023-03-18T17:39:54.610Z,4.50
2023-03-18T17:42:30.144Z,4.90
2023-03-18T17:45:06.701Z,3.90
2023-03-18T17:47:34.622Z,5.00
2023-03-18T17:50:04.813Z,5.10
2023-03-18T17:52:34.012Z,4.50
2023-03-18T17:55:01.921Z,5.20
2023-03-18T17:57:30.332Z,4.90
2023-03-18T17:59:58.578Z,5.50
2023-03-18T18:02:26.579Z,5.00
2023-03-18T18:04:54.377Z,4.20
2023-03-18T18:07:23.704Z,5.50
2023-03-18T18:09:51.589Z,5.00
2023-03-18T18:12:25.042Z,5.20
2023-03-18T18:14:52.877Z,9.50
2023-03-18T18:17:20.863Z,8.30
2023-03-18T18:19:48.672Z,7.50
2023-03-18T18:22:19.130Z,7.10
2023-03-18T18:24:48.415Z,6.70
2023-03-18T18:27:16.124Z,6.90
2023-03-18T18:29:45.778Z,5.80
2023-03-18T18:32:15.509Z,7.80
2023-03-18T18:34:43.360Z,8.10
2023-03-18T18:37:11.362Z,8.20
2023-03-18T18:39:39.135Z,8.50
2023-03-18T18:42:07.659Z,7.70
2023-03-18T18:44:35.748Z,8.20
2023-03-18T18:47:03.612Z,12.50
2023-03-18T18:49:32.482Z,18.40
2023-03-18T18:52:02.127Z,36.10
2023-03-18T18:54:29.898Z,18.20
2023-03-18T18:56:57.688Z,28.90
2023-03-18T18:59:30.789Z,20.60
2023-03-18T19:02:00.646Z,49.10
2023-03-18T19:04:29.165Z,32.70
2023-03-18T19:06:57.650Z,38.90
2023-03-18T19:09:26.583Z,46.10
2023-03-18T19:11:56.432Z,34.90
2023-03-18T19:14:29.061Z,19.50
2023-03-18T19:16:59.157Z,14.70
2023-03-18T19:19:34.831Z,12.00
2023-03-18T19:22:03.756Z,8.40
2023-03-18T19:24:39.245Z,7.80
2023-03-18T19:27:20.487Z,6.60
2023-03-18T19:29:49.137Z,7.40
2023-03-18T19:32:21.667Z,6.30
2023-03-18T19:34:51.725Z,7.70
2023-03-18T19:37:32.554Z,9.80
2023-03-18T19:40:03.933Z,8.50
2023-03-18T19:42:32.668Z,10.20
2023-03-18T19:45:00.379Z,11.30
2023-03-18T19:47:30.053Z,8.90
2023-03-18T19:49:58.040Z,9.40
2023-03-18T19:52:28.108Z,9.50
2023-03-18T19:54:56.426Z,11.70
2023-03-18T19:57:29.974Z,8.80
2023-03-18T19:59:59.819Z,10.10
2023-03-18T20:02:33.927Z,9.40
2023-03-18T20:05:04.508Z,8.70
2023-03-18T20:07:35.102Z,9.20
2023-03-18T20:10:02.871Z,8.70
2023-03-18T20:12:38.993Z,7.10
2023-03-18T20:15:13.837Z,7.40
2023-03-18T20:17:46.786Z,8.00
2023-03-18T20:20:27.467Z,8.70
2023-03-18T20:23:03.176Z,6.30
2023-03-18T20:25:34.273Z,7.00
2023-03-18T20:28:04.610Z,7.40
2023-03-18T20:30:35.819Z,7.10
2023-03-18T20:33:04.349Z,7.60
2023-03-18T20:35:35.494Z,8.10
2023-03-18T20:38:28.269Z,5.60
2023-03-18T20:40:56.852Z,6.20
2023-03-18T20:43:28.457Z,6.80
2023-03-18T20:45:58.438Z,6.60
2023-03-18T20:48:27.851Z,6.20
2023-03-18T20:50:56.287Z,6.60
2023-03-18T20:53:27.405Z,6.50
2023-03-18T20:55:55.875Z,6.70
2023-03-18T20:58:25.598Z,8.00
2023-03-18T21:00:53.820Z,6.70
2023-03-18T21:03:23.279Z,7.50
2023-03-18T21:05:52.787Z,7.10
2023-03-18T21:08:20.600Z,7.70
2023-03-18T21:10:48.804Z,7.50
2023-03-18T21:13:25.632Z,6.80
2023-03-18T21:15:54.594Z,7.40
2023-03-18T21:18:22.571Z,6.20
2023-03-18T21:20:50.872Z,13.80
2023-03-18T21:23:28.020Z,10.50
2023-03-18T21:25:56.611Z,8.10
2023-03-18T21:28:26.949Z,8.10
2023-03-18T21:30:58.289Z,6.70
2023-03-18T21:33:33.837Z,6.50
2023-03-18T21:36:02.810Z,6.70
2023-03-18T21:38:32.424Z,6.10
2023-03-18T21:43:33.389Z,6.90
2023-03-18T21:46:02.222Z,10.00
2023-03-18T21:48:31.591Z,8.80
2023-03-18T21:50:59.780Z,17.40
2023-03-18T21:53:28.177Z,29.80
2023-03-18T21:55:56.185Z,14.80
2023-03-18T21:58:26.345Z,15.20
2023-03-18T22:00:57.238Z,13.30
2023-03-18T22:03:28.992Z,21.20
2023-03-18T22:05:57.617Z,10.20
2023-03-18T22:08:25.484Z,8.10
2023-03-18T22:10:53.310Z,7.70
2023-03-18T22:13:25.805Z,9.20
2023-03-18T22:15:55.983Z,7.70
2023-03-18T22:18:23.917Z,7.30
2023-03-18T22:20:51.989Z,8.10
2023-03-18T22:23:21.727Z,5.60
2023-03-18T22:28:19.051Z,6.50
2023-03-18T22:30:52.105Z,7.00
2023-03-18T22:33:24.452Z,8.00
2023-03-18T22:35:53.101Z,6.20
2023-03-18T22:38:22.743Z,6.00
2023-03-18T22:43:36.606Z,5.60
2023-03-18T22:46:08.948Z,7.00
2023-03-18T22:48:37.607Z,6.00
2023-03-18T22:51:06.660Z,7.80
2023-03-18T22:53:40.639Z,6.60
2023-03-18T22:56:11.637Z,6.80
2023-03-18T23:02:21.521Z,7.00
2023-03-18T23:04:50.839Z,5.30
2023-03-18T23:07:29.182Z,6.90
2023-03-18T23:09:59.034Z,6.90
2023-03-18T23:12:30.327Z,7.30
2023-03-18T23:14:59.272Z,6.90
2023-03-18T23:17:28.421Z,7.40
2023-03-18T23:19:56.611Z,7.00
2023-03-18T23:22:30.659Z,8.40
2023-03-18T23:24:59.491Z,7.40
2023-03-18T23:27:28.619Z,6.00
2023-03-18T23:29:56.735Z,6.50
2023-03-18T23:32:24.972Z,6.10
2023-03-18T23:34:52.925Z,6.50
2023-03-18T23:37:20.902Z,7.10
2023-03-18T23:39:48.638Z,7.30
2023-03-18T23:42:17.842Z,5.80
2023-03-18T23:44:46.650Z,7.40
2023-03-18T23:47:16.928Z,6.30
2023-03-18T23:49:44.769Z,7.30
2023-03-18T23:52:14.385Z,6.90
2023-03-18T23:54:42.990Z,8.80
2023-03-18T23:57:11.619Z,6.80
2023-03-18T23:59:39.427Z,6.40
